createdAt,value
2019-02-18T00:01:41.848Z,6.30
2019-02-18T00:04:10.228Z,6.20
2019-02-18T00:06:38.669Z,6.30
2019-02-18T00:09:06.773Z,6.20
2019-02-18T00:14:08.601Z,6.10
2019-02-18T00:16:37.279Z,6.10
2019-02-18T00:19:05.816Z,6.00
2019-02-18T00:21:33.887Z,6.00
2019-02-18T00:24:02.351Z,6.00
2019-02-18T00:26:30.741Z,6.00
2019-02-18T00:28:59.407Z,6.00
2019-02-18T00:31:27.103Z,6.00
2019-02-18T00:33:55.076Z,6.00
2019-02-18T00:36:23.126Z,6.00
2019-02-18T00:38:50.704Z,6.00
2019-02-18T00:41:19.247Z,6.00
2019-02-18T00:43:47.460Z,8.50
2019-02-18T00:46:16.758Z,5.80
2019-02-18T00:48:45.175Z,5.60
2019-02-18T00:51:13.902Z,5.50
2019-02-18T00:53:42.240Z,5.40
2019-02-18T00:56:09.893Z,5.30
2019-02-18T00:58:38.231Z,5.30
2019-02-18T01:01:06.943Z,5.40
2019-02-18T01:03:35.211Z,5.70
2019-02-18T01:06:03.193Z,5.60
2019-02-18T01:08:31.596Z,5.60
2019-02-18T01:11:00.402Z,5.60
2019-02-18T01:13:28.792Z,5.60
2019-02-18T01:15:56.807Z,5.70
2019-02-18T01:18:25.800Z,5.60
2019-02-18T01:20:53.097Z,5.60
2019-02-18T01:23:20.719Z,5.50
2019-02-18T01:25:48.687Z,5.50
2019-02-18T01:28:16.235Z,5.60
2019-02-18T01:30:44.891Z,5.50
2019-02-18T01:33:13.716Z,5.40
2019-02-18T01:35:41.267Z,5.50
2019-02-18T01:38:09.519Z,5.50
2019-02-18T01:40:38.405Z,5.50
2019-02-18T01:43:06.415Z,5.40
2019-02-18T01:45:34.701Z,5.40
2019-02-18T01:48:03.269Z,5.40
2019-02-18T01:50:31.150Z,5.40
2019-02-18T01:53:01.712Z,5.20
2019-02-18T01:55:30.079Z,5.20
2019-02-18T01:57:58.823Z,5.20
2019-02-18T02:00:27.008Z,5.20
2019-02-18T02:02:56.784Z,5.10
2019-02-18T02:05:25.730Z,5.20
2019-02-18T02:07:56.639Z,5.30
2019-02-18T02:10:24.820Z,5.20
2019-02-18T02:13:24.956Z,5.20
2019-02-18T02:15:53.340Z,5.10
2019-02-18T02:18:21.436Z,5.20
2019-02-18T02:20:49.106Z,4.90
2019-02-18T02:23:17.179Z,4.90
2019-02-18T02:25:45.212Z,4.70
2019-02-18T02:28:13.692Z,4.70
2019-02-18T02:30:41.995Z,4.90
2019-02-18T02:33:10.469Z,5.00
2019-02-18T02:35:39.377Z,5.00
2019-02-18T02:38:08.229Z,5.00
2019-02-18T02:40:36.479Z,4.90
2019-02-18T02:43:05.305Z,4.90
2019-02-18T02:45:34.248Z,4.90
2019-02-18T02:48:01.961Z,5.00
2019-02-18T02:50:30.456Z,4.90
2019-02-18T02:52:58.420Z,5.00
2019-02-18T02:55:26.785Z,5.00
2019-02-18T02:57:54.756Z,5.00
2019-02-18T03:00:22.876Z,4.90
2019-02-18T03:02:51.804Z,4.90
2019-02-18T03:05:20.143Z,4.90
2019-02-18T03:07:48.597Z,4.80
2019-02-18T03:10:17.285Z,4.80
2019-02-18T03:12:44.884Z,4.80
2019-02-18T03:15:14.384Z,4.70
2019-02-18T03:17:42.874Z,4.80
2019-02-18T03:20:11.090Z,4.70
2019-02-18T03:22:39.490Z,4.80
2019-02-18T03:25:23.822Z,4.80
2019-02-18T03:27:54.777Z,4.70
2019-02-18T03:30:40.866Z,4.70
2019-02-18T03:33:09.136Z,4.70
2019-02-18T03:35:37.179Z,4.70
2019-02-18T03:38:05.797Z,4.70
2019-02-18T03:40:33.772Z,4.70
2019-02-18T03:43:02.443Z,4.60
2019-02-18T03:45:31.045Z,4.50
2019-02-18T03:48:03.313Z,4.40
2019-02-18T03:50:31.055Z,4.40
2019-02-18T03:52:59.660Z,4.40
2019-02-18T03:55:29.169Z,4.30
2019-02-18T03:57:58.126Z,4.20
2019-02-18T04:00:28.291Z,4.20
2019-02-18T04:02:57.815Z,4.40
2019-02-18T04:05:25.918Z,4.40
2019-02-18T04:07:54.645Z,4.40
2019-02-18T04:10:22.674Z,4.40
2019-02-18T04:12:50.996Z,4.30
2019-02-18T04:17:46.744Z,4.20
2019-02-18T04:20:15.923Z,4.20
2019-02-18T04:22:44.307Z,4.20
2019-02-18T04:25:12.781Z,4.10
2019-02-18T04:27:44.927Z,4.30
2019-02-18T04:30:13.733Z,4.30
2019-02-18T04:32:42.464Z,4.30
2019-02-18T04:35:10.000Z,4.40
2019-02-18T04:37:37.722Z,4.30
2019-02-18T04:40:06.359Z,4.30
2019-02-18T04:42:34.331Z,4.30
2019-02-18T04:45:04.647Z,4.50
2019-02-18T04:47:32.794Z,4.30
2019-02-18T04:52:28.466Z,4.30
2019-02-18T04:54:56.996Z,4.30
2019-02-18T04:57:25.744Z,4.30
2019-02-18T04:59:53.383Z,4.20
2019-02-18T05:02:21.781Z,4.20
2019-02-18T05:04:50.236Z,4.20
2019-02-18T05:07:20.038Z,4.10
2019-02-18T05:12:15.924Z,4.00
2019-02-18T05:14:44.282Z,4.10
2019-02-18T05:17:12.664Z,4.00
2019-02-18T05:19:40.960Z,4.10
2019-02-18T05:22:09.593Z,4.00
2019-02-18T05:24:37.714Z,3.90
2019-02-18T05:27:06.052Z,3.80
2019-02-18T05:29:34.138Z,3.80
2019-02-18T05:32:03.129Z,3.90
2019-02-18T05:34:31.746Z,4.00
2019-02-18T05:36:59.394Z,4.00
2019-02-18T05:39:27.668Z,4.10
2019-02-18T05:41:55.542Z,4.00
2019-02-18T05:44:23.783Z,3.90
2019-02-18T05:46:52.250Z,3.90
2019-02-18T05:51:48.393Z,4.00
2019-02-18T05:54:16.391Z,4.00
2019-02-18T05:56:44.476Z,4.00
2019-02-18T05:59:12.646Z,4.00
2019-02-18T06:01:40.649Z,3.90
2019-02-18T06:04:09.484Z,3.80
2019-02-18T06:06:37.574Z,3.80
2019-02-18T06:11:33.857Z,3.90
2019-02-18T06:14:02.595Z,3.90
2019-02-18T06:16:30.009Z,3.90
2019-02-18T06:18:57.789Z,3.90
2019-02-18T06:21:26.560Z,4.00
2019-02-18T06:23:55.017Z,4.10
2019-02-18T06:26:23.143Z,4.00
2019-02-18T06:31:20.045Z,3.90
2019-02-18T06:33:48.352Z,3.80
2019-02-18T06:36:18.858Z,3.80
2019-02-18T06:38:46.982Z,3.90
2019-02-18T06:41:15.087Z,4.00
2019-02-18T06:43:43.095Z,4.00
2019-02-18T06:46:32.705Z,4.00
2019-02-18T06:49:08.200Z,4.00
2019-02-18T06:51:36.989Z,4.00
2019-02-18T06:54:04.739Z,4.00
2019-02-18T06:56:54.900Z,4.00
2019-02-18T06:59:32.812Z,4.00
2019-02-18T07:04:40.859Z,4.00
2019-02-18T07:07:32.263Z,4.10
2019-02-18T07:10:03.748Z,4.10
2019-02-18T07:12:41.546Z,4.10
2019-02-18T07:15:10.811Z,4.20
2019-02-18T07:17:41.158Z,4.20
2019-02-18T07:20:09.524Z,4.30
2019-02-18T07:22:38.260Z,4.40
2019-02-18T07:25:07.469Z,4.40
2019-02-18T07:27:35.957Z,4.40
2019-02-18T07:30:05.119Z,4.40
2019-02-18T07:32:33.493Z,4.40
2019-02-18T07:35:01.622Z,4.40
2019-02-18T07:37:29.654Z,4.40
2019-02-18T07:40:01.668Z,4.50
2019-02-18T07:42:27.447Z,4.40
2019-02-18T07:44:54.841Z,4.50
2019-02-18T07:47:23.193Z,4.50
2019-02-18T07:50:01.812Z,4.70
2019-02-18T07:52:30.329Z,4.70
2019-02-18T07:54:58.332Z,4.80
2019-02-18T07:57:26.304Z,4.90
2019-02-18T07:59:54.691Z,5.00
2019-02-18T08:02:23.268Z,5.00
2019-02-18T08:04:51.773Z,5.10
2019-02-18T08:07:20.133Z,5.10
2019-02-18T08:09:49.390Z,5.20
2019-02-18T08:12:17.546Z,5.30
2019-02-18T08:14:45.656Z,5.50
2019-02-18T08:17:14.211Z,5.50
2019-02-18T08:19:42.647Z,5.70
2019-02-18T08:22:11.085Z,5.70
2019-02-18T08:24:39.603Z,6.00
2019-02-18T08:29:34.943Z,6.40
2019-02-18T08:32:03.201Z,6.50
2019-02-18T08:34:36.703Z,6.70
2019-02-18T08:37:05.587Z,7.20
2019-02-18T08:39:34.248Z,7.40
2019-02-18T08:42:02.417Z,7.40
2019-02-18T08:44:30.585Z,7.70
2019-02-18T08:46:59.019Z,8.30
2019-02-18T08:49:27.089Z,8.60
2019-02-18T08:51:55.062Z,8.60
2019-02-18T08:54:23.424Z,9.20
2019-02-18T08:56:52.071Z,9.20
2019-02-18T08:59:20.587Z,9.20
2019-02-18T09:01:49.480Z,9.60
2019-02-18T09:04:17.815Z,9.80
2019-02-18T09:06:46.137Z,9.90
2019-02-18T09:09:14.717Z,10.40
2019-02-18T09:11:43.012Z,10.40
2019-02-18T09:14:11.779Z,10.90
2019-02-18T09:16:39.748Z,11.10
2019-02-18T09:19:08.019Z,11.50
2019-02-18T09:21:36.153Z,11.60
2019-02-18T09:24:23.546Z,11.60
2019-02-18T09:26:52.342Z,11.90
2019-02-18T09:29:23.135Z,12.40
2019-02-18T09:31:52.157Z,12.60
2019-02-18T09:34:20.747Z,12.60
2019-02-18T09:36:48.304Z,13.00
2019-02-18T09:39:30.691Z,13.00
2019-02-18T09:41:50.615Z,13.20
2019-02-18T09:44:18.951Z,13.60
2019-02-18T09:46:47.339Z,14.40
2019-02-18T09:49:15.586Z,15.70
2019-02-18T09:51:43.930Z,15.70
2019-02-18T09:54:12.204Z,16.90
2019-02-18T09:56:40.006Z,17.20
2019-02-18T09:59:08.428Z,17.40
2019-02-18T10:01:36.779Z,17.80
2019-02-18T10:04:04.662Z,17.80
2019-02-18T10:06:33.048Z,17.50
2019-02-18T10:09:01.432Z,17.50
2019-02-18T10:11:29.736Z,18.80
2019-02-18T10:13:57.669Z,18.90
2019-02-18T10:16:26.068Z,19.10
2019-02-18T10:18:54.434Z,19.60
2019-02-18T10:21:23.215Z,19.80
2019-02-18T10:23:50.941Z,20.20
2019-02-18T10:26:19.482Z,20.50
2019-02-18T10:28:47.874Z,20.40
2019-02-18T10:31:17.142Z,21.00
2019-02-18T10:33:45.791Z,21.10
2019-02-18T10:36:14.331Z,21.20
2019-02-18T10:38:42.711Z,22.00
2019-02-18T10:41:11.199Z,22.40
2019-02-18T10:43:39.258Z,22.20
2019-02-18T10:46:08.160Z,22.80
2019-02-18T10:48:36.524Z,23.00
2019-02-18T10:51:05.137Z,23.10
2019-02-18T10:53:33.175Z,23.10
2019-02-18T10:56:04.642Z,24.70
2019-02-18T10:58:34.072Z,24.90
2019-02-18T11:01:03.452Z,25.50
2019-02-18T11:03:31.972Z,28.30
2019-02-18T11:06:01.042Z,29.20
2019-02-18T11:08:29.981Z,29.50
2019-02-18T11:11:05.985Z,29.90
2019-02-18T11:13:34.049Z,30.10
2019-02-18T11:16:03.073Z,30.40
2019-02-18T11:18:31.632Z,30.90
2019-02-18T11:23:29.832Z,31.20
2019-02-18T11:26:00.002Z,32.50
2019-02-18T11:28:29.341Z,34.00
2019-02-18T11:30:57.512Z,31.80
2019-02-18T11:33:25.761Z,31.00
2019-02-18T11:38:22.313Z,32.30
2019-02-18T11:40:50.539Z,30.40
2019-02-18T11:43:18.892Z,33.00
2019-02-18T11:45:47.169Z,33.10
2019-02-18T11:48:17.066Z,33.50
2019-02-18T11:50:45.201Z,32.90
2019-02-18T11:53:12.493Z,32.20
2019-02-18T11:55:42.553Z,34.00
2019-02-18T12:00:38.296Z,32.30
2019-02-18T12:03:11.605Z,31.30
2019-02-18T12:05:38.070Z,30.90
2019-02-18T12:08:05.769Z,30.70
2019-02-18T12:10:34.713Z,30.00
2019-02-18T12:13:02.831Z,29.70
2019-02-18T12:15:31.271Z,32.50
2019-02-18T12:18:00.145Z,33.70
2019-02-18T12:20:29.599Z,33.80
2019-02-18T12:22:57.800Z,32.30
2019-02-18T12:27:54.363Z,32.10
2019-02-18T12:30:22.511Z,30.70
2019-02-18T12:32:51.327Z,30.20
2019-02-18T12:35:30.272Z,29.10
2019-02-18T12:37:55.331Z,28.60
2019-02-18T12:40:21.260Z,29.20
2019-02-18T12:42:49.866Z,29.50
2019-02-18T12:45:18.665Z,29.50
2019-02-18T12:47:46.546Z,25.30
2019-02-18T12:52:43.296Z,26.90
2019-02-18T12:55:12.628Z,27.50
2019-02-18T12:57:41.184Z,27.50
2019-02-18T13:00:09.675Z,26.10
2019-02-18T13:02:44.179Z,25.60
2019-02-18T13:05:08.662Z,24.00
2019-02-18T13:07:37.174Z,24.70
2019-02-18T13:10:06.444Z,25.40
2019-02-18T13:12:37.667Z,25.40
2019-02-18T13:15:07.989Z,25.20
2019-02-18T13:17:38.953Z,24.20
2019-02-18T13:20:07.258Z,23.40
2019-02-18T13:22:35.487Z,23.60
2019-02-18T13:25:04.511Z,22.80
2019-02-18T13:27:35.978Z,22.60
2019-02-18T13:30:13.324Z,22.90
2019-02-18T13:32:45.634Z,22.70
2019-02-18T13:35:41.684Z,22.90
2019-02-18T13:38:11.528Z,23.00
2019-02-18T13:40:42.115Z,22.10
2019-02-18T13:43:12.901Z,21.30
2019-02-18T13:45:43.716Z,21.70
2019-02-18T13:48:12.221Z,21.40
2019-02-18T13:53:09.792Z,20.60
2019-02-18T13:55:37.447Z,20.70
2019-02-18T13:58:06.532Z,20.90
2019-02-18T14:00:34.520Z,21.00
2019-02-18T14:03:03.187Z,20.90
2019-02-18T14:05:32.319Z,21.00
2019-02-18T14:08:02.046Z,21.40
2019-02-18T14:10:31.341Z,20.70
2019-02-18T14:13:01.971Z,20.30
2019-02-18T14:15:30.371Z,20.30
2019-02-18T14:18:00.620Z,19.90
2019-02-18T14:20:29.028Z,19.70
2019-02-18T14:22:58.472Z,19.80
2019-02-18T14:25:29.379Z,19.60
2019-02-18T14:27:59.618Z,19.70
2019-02-18T14:30:28.353Z,19.40
2019-02-18T14:32:57.803Z,19.60
2019-02-18T14:37:57.847Z,19.90
2019-02-18T14:40:27.089Z,20.20
2019-02-18T14:42:56.857Z,20.30
2019-02-18T14:45:27.359Z,20.60
2019-02-18T14:47:57.295Z,20.40
2019-02-18T14:50:27.505Z,21.20
2019-02-18T14:52:58.261Z,21.20
2019-02-18T14:57:57.790Z,21.60
2019-02-18T15:00:25.830Z,20.50
2019-02-18T15:02:55.525Z,20.50
2019-02-18T15:05:25.921Z,19.70
2019-02-18T15:07:54.060Z,19.60
2019-02-18T15:10:21.908Z,20.60
2019-02-18T15:12:50.161Z,20.60
2019-02-18T15:15:19.072Z,20.50
2019-02-18T15:17:47.524Z,20.00
2019-02-18T15:20:19.110Z,19.50
2019-02-18T15:22:48.141Z,19.20
2019-02-18T15:25:16.625Z,18.50
2019-02-18T15:27:45.193Z,17.80
2019-02-18T15:30:14.723Z,17.30
2019-02-18T15:32:43.717Z,16.40
2019-02-18T15:35:13.525Z,16.10
2019-02-18T15:40:12.451Z,15.70
2019-02-18T15:42:42.555Z,15.70
2019-02-18T15:45:12.032Z,15.50
2019-02-18T15:47:44.046Z,15.30
2019-02-18T15:50:11.900Z,15.20
2019-02-18T15:52:41.645Z,15.10
2019-02-18T15:55:10.679Z,14.90
2019-02-18T15:57:39.261Z,14.80
2019-02-18T16:00:10.280Z,14.50
2019-02-18T16:02:38.864Z,14.50
2019-02-18T16:05:07.698Z,14.70
2019-02-18T16:07:35.914Z,14.40
2019-02-18T16:10:03.964Z,14.40
2019-02-18T16:12:32.075Z,14.30
2019-02-18T16:15:00.710Z,14.20
2019-02-18T16:17:29.599Z,14.10
2019-02-18T16:22:29.759Z,13.80
2019-02-18T16:24:57.934Z,13.80
2019-02-18T16:27:27.685Z,13.80
2019-02-18T16:29:59.196Z,13.60
2019-02-18T16:34:56.882Z,13.60
2019-02-18T16:37:25.560Z,13.50
2019-02-18T16:39:54.124Z,13.40
2019-02-18T16:42:23.932Z,13.40
2019-02-18T16:44:52.771Z,13.20
2019-02-18T16:47:21.351Z,13.20
2019-02-18T16:49:51.841Z,12.90
2019-02-18T16:52:20.263Z,12.90
2019-02-18T16:54:48.441Z,12.80
2019-02-18T16:57:17.087Z,12.70
2019-02-18T17:02:13.137Z,12.70
2019-02-18T17:04:43.575Z,12.60
2019-02-18T17:07:11.819Z,12.60
2019-02-18T17:09:43.034Z,12.30
2019-02-18T17:12:15.485Z,12.20
2019-02-18T17:14:43.724Z,12.20
2019-02-18T17:17:12.083Z,12.10
2019-02-18T17:19:42.042Z,11.70
2019-02-18T17:22:12.587Z,11.60
2019-02-18T17:24:41.614Z,11.50
2019-02-18T17:27:10.404Z,11.50
2019-02-18T17:32:09.991Z,11.50
2019-02-18T17:37:06.302Z,11.30
2019-02-18T17:39:36.122Z,11.20
2019-02-18T17:42:04.679Z,11.10
2019-02-18T17:44:34.441Z,11.10
2019-02-18T17:47:02.467Z,11.00
2019-02-18T17:49:30.207Z,10.90
2019-02-18T17:51:58.647Z,10.90
2019-02-18T17:54:27.537Z,10.80
2019-02-18T17:56:55.679Z,10.80
2019-02-18T17:59:24.482Z,10.60
2019-02-18T18:01:53.006Z,10.60
2019-02-18T18:04:22.311Z,10.60
2019-02-18T18:06:57.711Z,10.60
2019-02-18T18:09:26.187Z,10.60
2019-02-18T18:12:07.776Z,10.50
2019-02-18T18:14:36.830Z,10.40
2019-02-18T18:17:05.071Z,10.40
2019-02-18T18:19:33.641Z,10.40
2019-02-18T18:22:06.543Z,10.60
2019-02-18T18:24:35.427Z,10.40
2019-02-18T18:27:16.851Z,10.20
2019-02-18T18:29:55.969Z,10.10
2019-02-18T18:32:41.265Z,10.10
2019-02-18T18:35:55.967Z,10.00
2019-02-18T18:38:34.193Z,10.00
2019-02-18T18:41:06.643Z,9.90
2019-02-18T18:43:37.984Z,9.90
2019-02-18T18:46:07.478Z,9.90
2019-02-18T18:48:36.840Z,9.90
2019-02-18T18:51:07.141Z,9.80
2019-02-18T18:53:39.513Z,9.70
2019-02-18T18:56:09.844Z,9.60
2019-02-18T18:58:38.719Z,9.60
2019-02-18T19:03:35.304Z,9.60
2019-02-18T19:06:04.054Z,9.60
2019-02-18T19:08:32.952Z,9.50
2019-02-18T19:11:13.609Z,9.50
2019-02-18T19:13:44.138Z,9.50
2019-02-18T19:16:12.386Z,9.50
2019-02-18T19:18:42.424Z,9.50
2019-02-18T19:21:12.848Z,9.50
2019-02-18T19:23:42.010Z,9.40
2019-02-18T19:26:11.487Z,9.30
2019-02-18T19:28:39.870Z,9.20
2019-02-18T19:31:09.592Z,9.20
2019-02-18T19:33:37.772Z,9.20
2019-02-18T19:36:06.896Z,9.20
2019-02-18T19:38:38.057Z,9.10
2019-02-18T19:41:07.196Z,9.10
2019-02-18T19:43:36.699Z,9.10
2019-02-18T19:46:05.244Z,9.00
2019-02-18T19:48:34.992Z,9.00
2019-02-18T19:51:05.938Z,9.00
2019-02-18T19:53:39.419Z,8.90
2019-02-18T19:56:13.135Z,8.90
2019-02-18T19:58:41.924Z,9.10
2019-02-18T20:01:10.360Z,8.80
2019-02-18T20:03:42.261Z,8.80
2019-02-18T20:06:14.263Z,8.80
2019-02-18T20:08:42.537Z,8.80
2019-02-18T20:11:13.267Z,8.80
2019-02-18T20:13:42.054Z,8.70
2019-02-18T20:16:11.033Z,8.70
2019-02-18T20:18:40.020Z,8.60
2019-02-18T20:21:11.328Z,8.60
2019-02-18T20:23:42.816Z,8.50
2019-02-18T20:26:11.163Z,8.40
2019-02-18T20:28:40.266Z,8.40
2019-02-18T20:31:09.013Z,8.20
2019-02-18T20:33:37.742Z,8.30
2019-02-18T20:36:06.329Z,7.10
2019-02-18T20:38:37.800Z,8.30
2019-02-18T20:41:06.086Z,8.30
2019-02-18T20:43:34.989Z,8.30
2019-02-18T20:46:04.169Z,8.20
2019-02-18T20:48:33.627Z,8.20
2019-02-18T20:51:07.053Z,8.20
2019-02-18T20:53:36.966Z,8.20
2019-02-18T20:56:05.665Z,8.20
2019-02-18T20:58:34.489Z,8.10
2019-02-18T21:01:02.971Z,8.20
2019-02-18T21:03:31.830Z,8.10
2019-02-18T21:06:00.075Z,9.00
2019-02-18T21:08:28.711Z,8.10
2019-02-18T21:10:58.087Z,8.00
2019-02-18T21:13:27.188Z,7.90
2019-02-18T21:15:56.038Z,7.90
2019-02-18T21:18:23.783Z,8.00
2019-02-18T21:20:52.046Z,7.90
2019-02-18T21:23:21.907Z,7.90
2019-02-18T21:25:51.465Z,7.90
2019-02-18T21:28:20.648Z,7.90
2019-02-18T21:30:49.268Z,7.90
2019-02-18T21:33:18.341Z,7.90
2019-02-18T21:35:47.208Z,7.80
2019-02-18T21:38:15.921Z,7.90
2019-02-18T21:40:44.193Z,7.90
2019-02-18T21:43:12.894Z,7.80
2019-02-18T21:45:41.346Z,7.80
2019-02-18T21:48:09.778Z,7.70
2019-02-18T21:50:38.632Z,7.70
2019-02-18T21:53:07.307Z,7.60
2019-02-18T21:55:40.927Z,7.60
2019-02-18T21:58:09.177Z,6.40
2019-02-18T22:00:37.758Z,7.50
2019-02-18T22:03:08.999Z,7.50
2019-02-18T22:05:36.779Z,7.50
2019-02-18T22:08:05.631Z,7.50
2019-02-18T22:10:36.722Z,7.60
2019-02-18T22:13:07.340Z,7.60
2019-02-18T22:15:37.847Z,7.50
2019-02-18T22:18:06.255Z,7.50
2019-02-18T22:20:34.699Z,7.50
2019-02-18T22:23:03.938Z,7.60
2019-02-18T22:25:32.318Z,7.40
2019-02-18T22:28:00.402Z,7.30
2019-02-18T22:30:31.843Z,7.30
2019-02-18T22:33:00.564Z,7.00
2019-02-18T22:35:29.000Z,7.00
2019-02-18T22:37:57.255Z,7.00
2019-02-18T22:40:26.246Z,7.00
2019-02-18T22:42:55.419Z,7.10
2019-02-18T22:45:23.876Z,7.10
2019-02-18T22:47:51.620Z,7.10
2019-02-18T22:50:22.739Z,7.10
2019-02-18T22:52:53.078Z,7.10
2019-02-18T22:55:22.600Z,7.10
2019-02-18T22:57:51.080Z,7.00
2019-02-18T23:00:42.940Z,7.00
2019-02-18T23:03:13.244Z,7.10
2019-02-18T23:05:41.392Z,7.00
2019-02-18T23:08:10.904Z,7.10
2019-02-18T23:10:39.879Z,7.00
2019-02-18T23:23:52.640Z,6.80
2019-02-18T23:26:21.380Z,6.80
2019-02-18T23:28:49.313Z,6.80
2019-02-18T23:31:17.026Z,6.80
2019-02-18T23:33:45.897Z,6.80
2019-02-18T23:36:14.195Z,6.80
2019-02-18T23:38:45.937Z,6.90
2019-02-18T23:41:14.610Z,6.80
2019-02-18T23:43:42.578Z,6.80
2019-02-18T23:46:10.968Z,6.70
2019-02-18T23:48:40.053Z,6.70
2019-02-18T23:53:36.528Z,6.70
2019-02-18T23:56:03.830Z,6.60
2019-02-18T23:58:31.770Z,6.60
